Time;durP1;ratioP1;P1;durP2;ratioP2;P2;SDS_P1;SDS_P2;PMS_P1;PMS_P2;Temp;Humidity;BMP_temperature;BMP_pressure;BME280_temperature;BME280_humidity;BME280_pressure;Samples;Min_cycle;Max_cycle;Signal;HPM_P1;HPM_P2
2022/09/21 00:00:44;;;;;;;4.75;3.55;;;8.70;99.90;;;;;;5108064;28;20404;-76
2022/09/21 00:03:10;;;;;;;6.75;4.10;;;8.70;99.90;;;;;;5110876;28;20065;-76
2022/09/21 00:05:35;;;;;;;7.70;4.00;;;8.60;99.90;;;;;;5108776;28;20101;-76
2022/09/21 00:08:03;;;;;;;6.63;3.70;;;8.60;99.90;;;;;;5088280;28;20040;-76
2022/09/21 00:10:29;;;;;;;5.32;3.65;;;8.60;99.90;;;;;;5109519;28;20141;-75
2022/09/21 00:12:56;;;;;;;8.10;4.45;;;8.60;99.90;;;;;;5103875;28;20484;-76
2022/09/21 00:15:21;;;;;;;6.30;3.70;;;8.50;99.90;;;;;;5109849;28;20044;-76
2022/09/21 00:17:47;;;;;;;5.72;3.78;;;8.50;99.90;;;;;;5105839;28;20043;-76
2022/09/21 00:20:14;;;;;;;5.38;3.30;;;8.50;99.90;;;;;;5093263;28;20047;-76
2022/09/21 00:22:40;;;;;;;6.80;2.97;;;8.50;99.90;;;;;;5093572;28;20039;-76
2022/09/21 00:25:08;;;;;;;4.80;3.13;;;8.50;99.90;;;;;;5110249;28;20557;-76
2022/09/21 00:27:33;;;;;;;4.68;2.75;;;8.40;99.90;;;;;;5105443;28;20036;-75
2022/09/21 00:30:01;;;;;;;4.55;2.58;;;8.40;99.90;;;;;;5107028;28;20059;-75
2022/09/21 00:32:30;;;;;;;4.80;2.65;;;8.30;99.90;;;;;;5104300;28;20073;-75
2022/09/21 00:34:56;;;;;;;3.63;2.20;;;8.30;99.90;;;;;;5085901;28;20063;-75
2022/09/21 00:37:22;;;;;;;4.40;2.72;;;8.30;99.90;;;;;;5103028;28;20048;-76
2022/09/21 00:39:47;;;;;;;4.45;2.70;;;8.30;99.90;;;;;;5093192;28;20046;-76
2022/09/21 00:42:22;;;;;;;5.30;2.75;;;8.30;99.90;;;;;;5089269;28;20078;-76
2022/09/21 00:44:48;;;;;;;6.80;2.72;;;8.20;99.90;;;;;;5105204;28;20093;-76
2022/09/21 00:47:16;;;;;;;5.85;2.35;;;8.20;99.90;;;;;;5093466;28;20047;-74
2022/09/21 00:49:48;;;;;;;6.10;2.10;;;8.20;99.90;;;;;;5105222;28;20075;-76
2022/09/21 00:52:15;;;;;;;4.28;2.38;;;8.10;99.90;;;;;;5107129;28;20048;-76
2022/09/21 00:54:46;;;;;;;3.67;2.47;;;8.10;99.90;;;;;;5107927;28;20509;-76
2022/09/21 00:57:14;;;;;;;4.85;2.30;;;8.10;99.90;;;;;;5099724;28;20443;-75
2022/09/21 00:59:42;;;;;;;4.05;2.35;;;8.00;99.90;;;;;;5105077;28;20046;-74
2022/09/21 01:02:08;;;;;;;3.38;2.00;;;8.00;99.90;;;;;;5110750;28;20050;-76
2022/09/21 01:04:35;;;;;;;3.35;2.40;;;7.90;99.90;;;;;;5105543;28;20039;-76
2022/09/21 01:07:04;;;;;;;5.70;2.25;;;7.80;99.90;;;;;;5107858;28;20048;-74
2022/09/21 01:09:30;;;;;;;3.88;2.13;;;7.80;99.90;;;;;;5085955;28;20535;-75
2022/09/21 01:12:34;;;;;;;4.57;2.00;;;7.80;99.90;;;;;;5104688;28;20048;-76
2022/09/21 01:15:22;;;;;;;4.95;2.22;;;7.80;99.90;;;;;;5106211;28;20036;-75
2022/09/21 01:18:13;;;;;;;3.80;2.30;;;7.70;99.90;;;;;;5109067;28;20158;-76
2022/09/21 01:21:20;;;;;;;3.90;2.10;;;7.70;99.90;;;;;;5108467;28;20048;-76
2022/09/21 01:23:55;;;;;;;4.68;2.35;;;7.70;99.90;;;;;;5083460;28;20036;-75
2022/09/21 01:26:32;;;;;;;4.18;2.10;;;7.80;99.90;;;;;;5103562;28;20090;-75
2022/09/21 01:29:22;;;;;;;3.53;1.90;;;7.80;99.90;;;;;;5100758;28;20048;-75
2022/09/21 01:32:01;;;;;;;5.45;2.00;;;7.80;99.90;;;;;;5105060;28;20043;-76
2022/09/21 01:34:35;;;;;;;4.78;2.40;;;7.70;99.90;;;;;;5102146;28;20055;-75
2022/09/21 01:37:10;;;;;;;3.67;2.42;;;7.70;99.90;;;;;;5100185;28;20050;-76
2022/09/21 01:39:38;;;;;;;4.15;2.65;;;7.80;99.90;;;;;;5082473;28;20038;-76
2022/09/21 01:42:06;;;;;;;4.47;2.08;;;7.70;99.90;;;;;;5105051;28;20532;-75
2022/09/21 01:44:34;;;;;;;3.47;2.15;;;7.70;99.90;;;;;;5099941;28;20043;-76
2022/09/21 01:47:02;;;;;;;4.68;2.30;;;7.80;99.90;;;;;;5109310;28;20130;-76
2022/09/21 01:49:37;;;;;;;3.78;2.13;;;7.80;99.90;;;;;;5090512;28;20083;-74
2022/09/21 01:52:15;;;;;;;4.75;2.50;;;7.80;99.90;;;;;;5101193;28;20114;-75
2022/09/21 01:54:52;;;;;;;5.20;2.15;;;7.80;99.90;;;;;;5100347;28;20086;-76
2022/09/21 01:57:33;;;;;;;7.07;2.53;;;7.70;99.90;;;;;;5105267;28;20047;-75
2022/09/21 02:00:00;;;;;;;4.38;2.22;;;7.80;99.90;;;;;;5093470;28;20051;-75
2022/09/21 02:02:30;;;;;;;3.42;2.25;;;7.70;99.90;;;;;;5102736;28;20130;-75
2022/09/21 02:04:59;;;;;;;4.53;2.15;;;7.80;99.90;;;;;;5106738;28;20084;-74
2022/09/21 02:07:25;;;;;;;3.97;2.28;;;7.80;99.90;;;;;;5104491;28;20065;-75
2022/09/21 02:09:50;;;;;;;4.15;2.30;;;7.70;99.90;;;;;;5108496;28;20114;-75
2022/09/21 02:12:16;;;;;;;3.63;2.00;;;7.70;99.90;;;;;;5105408;28;20509;-75
2022/09/21 02:14:42;;;;;;;2.80;1.42;;;7.70;99.90;;;;;;5106664;28;20119;-76
2022/09/21 02:17:33;;;;;;;2.72;1.65;;;7.60;99.90;;;;;;5106314;28;20133;-76
2022/09/21 02:20:19;;;;;;;3.78;1.73;;;7.60;99.90;;;;;;5096872;28;20123;-75
2022/09/21 02:23:08;;;;;;;3.33;1.88;;;7.50;99.90;;;;;;5102657;28;20123;-75
2022/09/21 02:25:57;;;;;;;4.35;1.83;;;7.50;99.90;;;;;;5095492;28;20035;-75
2022/09/21 02:28:40;;;;;;;2.40;1.60;;;7.50;99.90;;;;;;5107448;28;20035;-75
2022/09/21 02:31:29;;;;;;;2.17;1.75;;;7.40;99.90;;;;;;5102077;28;20038;-75
2022/09/21 02:34:01;;;;;;;2.80;1.90;;;7.40;99.90;;;;;;5100041;28;20087;-74
2022/09/21 02:36:34;;;;;;;4.55;2.00;;;7.40;99.90;;;;;;5100760;28;20051;-75
2022/09/21 02:39:06;;;;;;;2.55;1.80;;;7.40;99.90;;;;;;5104423;28;20535;-75
2022/09/21 02:41:44;;;;;;;5.18;1.77;;;7.30;99.90;;;;;;5107983;28;20057;-75
2022/09/21 02:44:22;;;;;;;2.97;1.90;;;7.30;99.90;;;;;;5109309;28;20046;-75
2022/09/21 02:47:03;;;;;;;3.15;1.90;;;7.20;99.90;;;;;;5108578;28;20047;-75
2022/09/21 02:49:40;;;;;;;3.30;1.75;;;7.10;99.90;;;;;;5101073;28;20100;-74
2022/09/21 02:52:15;;;;;;;4.30;1.70;;;7.10;99.90;;;;;;5107565;28;20036;-75
2022/09/21 02:54:46;;;;;;;3.97;2.30;;;7.10;99.90;;;;;;5105624;28;20094;-75
2022/09/21 02:57:13;;;;;;;5.38;2.00;;;7.10;99.90;;;;;;5106263;28;20100;-74
2022/09/21 02:59:39;;;;;;;3.90;1.80;;;7.20;99.90;;;;;;5106310;28;20036;-75
2022/09/21 03:02:05;;;;;;;5.13;2.15;;;7.10;99.90;;;;;;5102450;28;20040;-75
2022/09/21 03:04:32;;;;;;;2.33;1.88;;;7.10;99.90;;;;;;5102760;28;20075;-75
2022/09/21 03:06:58;;;;;;;2.78;1.70;;;7.20;99.90;;;;;;5101715;28;20052;-75
2022/09/21 03:09:23;;;;;;;2.58;1.80;;;7.10;99.90;;;;;;5107418;28;20032;-75
2022/09/21 03:11:50;;;;;;;4.80;1.90;;;7.10;99.90;;;;;;5104729;28;20070;-75
2022/09/21 03:14:18;;;;;;;2.75;1.77;;;7.10;99.90;;;;;;5098330;28;20481;-75
2022/09/21 03:16:43;;;;;;;2.08;1.70;;;7.10;99.90;;;;;;5097498;28;20443;-75
2022/09/21 03:19:09;;;;;;;2.85;1.70;;;7.10;99.90;;;;;;5087470;28;20040;-75
2022/09/21 03:21:35;;;;;;;2.20;1.80;;;7.10;99.90;;;;;;5105193;28;20527;-75
2022/09/21 03:24:01;;;;;;;4.53;2.10;;;7.10;99.90;;;;;;5103589;28;20397;-75
2022/09/21 03:26:26;;;;;;;6.07;1.65;;;7.10;99.90;;;;;;5105947;28;20042;-75
2022/09/21 03:28:55;;;;;;;3.20;1.85;;;7.00;99.90;;;;;;5103202;28;20043;-75
2022/09/21 03:31:21;;;;;;;6.10;1.92;;;7.00;99.90;;;;;;5110092;28;20040;-75
2022/09/21 03:33:46;;;;;;;3.15;1.50;;;6.90;99.90;;;;;;5107477;28;20065;-73
2022/09/21 03:36:12;;;;;;;2.85;1.45;;;6.90;99.90;;;;;;5105901;28;20039;-75
2022/09/21 03:38:38;;;;;;;4.78;1.58;;;6.80;99.90;;;;;;5106710;28;20089;-75
2022/09/21 03:41:04;;;;;;;2.60;1.55;;;6.70;99.90;;;;;;5110792;28;20059;-75
2022/09/21 03:43:30;;;;;;;4.53;1.92;;;6.70;99.90;;;;;;5106326;28;20397;-75
2022/09/21 03:45:56;;;;;;;2.28;1.52;;;6.60;99.90;;;;;;5107902;28;20031;-75
2022/09/21 03:48:23;;;;;;;2.88;1.70;;;6.60;99.90;;;;;;5109191;28;20488;-75
2022/09/21 03:50:48;;;;;;;2.55;1.67;;;6.50;99.90;;;;;;5102982;28;20092;-75
2022/09/21 03:53:15;;;;;;;2.70;1.80;;;6.50;99.90;;;;;;5091187;28;20035;-75
2022/09/21 03:55:40;;;;;;;2.47;1.52;;;6.50;99.90;;;;;;5107705;28;20373;-75
2022/09/21 03:58:06;;;;;;;3.17;1.98;;;6.50;99.90;;;;;;5090846;28;20036;-75
2022/09/21 04:00:32;;;;;;;3.58;1.90;;;6.50;99.90;;;;;;5103592;28;20484;-75
2022/09/21 04:02:57;;;;;;;5.10;1.98;;;6.60;99.90;;;;;;5113317;28;20039;-75
2022/09/21 04:05:23;;;;;;;6.13;1.70;;;6.50;99.90;;;;;;5108186;28;20031;-75
2022/09/21 04:07:49;;;;;;;3.97;2.00;;;6.50;99.90;;;;;;5088702;28;20050;-75
2022/09/21 04:10:17;;;;;;;2.90;1.52;;;6.40;99.90;;;;;;5105184;28;20089;-75
2022/09/21 04:12:44;;;;;;;6.57;1.67;;;6.40;99.90;;;;;;5108776;28;20047;-75
2022/09/21 04:15:11;;;;;;;3.03;1.70;;;6.40;99.90;;;;;;5108610;28;20040;-75
2022/09/21 04:17:36;;;;;;;3.80;2.05;;;6.40;99.90;;;;;;5108571;28;20057;-75
2022/09/21 04:20:03;;;;;;;5.15;1.90;;;6.40;99.90;;;;;;5108139;28;20110;-73
2022/09/21 04:22:29;;;;;;;4.22;1.70;;;6.40;99.90;;;;;;5108626;28;20096;-74
2022/09/21 04:24:54;;;;;;;4.25;1.60;;;6.40;99.90;;;;;;5087869;28;20082;-74
2022/09/21 04:27:20;;;;;;;1.80;1.10;;;6.50;99.90;;;;;;5087655;28;20032;-75
2022/09/21 04:29:46;;;;;;;2.08;1.25;;;6.40;99.90;;;;;;5110097;28;20042;-75
2022/09/21 04:32:11;;;;;;;3.45;1.00;;;6.40;99.90;;;;;;5100697;28;20421;-75
2022/09/21 04:34:38;;;;;;;1.63;0.90;;;6.40;99.90;;;;;;5105816;28;20572;-75
2022/09/21 04:37:08;;;;;;;2.38;1.20;;;6.30;99.90;;;;;;5108787;28;20443;-72
2022/09/21 04:39:34;;;;;;;4.63;1.55;;;6.30;99.90;;;;;;5122425;27;20027;-75
2022/09/21 04:42:00;;;;;;;3.70;1.85;;;6.30;99.90;;;;;;5095287;28;20035;-75
2022/09/21 04:44:26;;;;;;;2.92;1.48;;;6.30;99.90;;;;;;5109887;28;20063;-74
2022/09/21 04:46:51;;;;;;;3.08;2.08;;;6.30;99.90;;;;;;5101254;28;20047;-75
2022/09/21 04:49:17;;;;;;;2.78;1.50;;;6.30;99.90;;;;;;5083798;28;20048;-74
2022/09/21 04:51:42;;;;;;;2.15;1.60;;;6.20;99.90;;;;;;5108707;28;20523;-75
2022/09/21 04:54:08;;;;;;;2.95;1.70;;;6.20;99.90;;;;;;5105505;28;20082;-75
2022/09/21 04:56:34;;;;;;;4.13;1.63;;;6.30;99.90;;;;;;5101126;28;20129;-74
2022/09/21 04:58:59;;;;;;;2.50;1.70;;;6.30;99.90;;;;;;5100608;28;20047;-74
2022/09/21 05:01:25;;;;;;;3.92;1.70;;;6.20;99.90;;;;;;5105867;28;20495;-75
2022/09/21 05:03:50;;;;;;;3.15;2.05;;;6.20;99.90;;;;;;5103453;28;20074;-75
2022/09/21 05:06:16;;;;;;;4.35;1.73;;;6.20;99.90;;;;;;5098956;28;20039;-73
2022/09/21 05:11:25;;;;;;;;;;;6.10;99.90;;;;;;5106951;28;20040;-74
2022/09/21 05:13:51;;;;;;;2.95;1.80;;;6.10;99.90;;;;;;5112008;28;19915;-74
2022/09/21 05:16:17;;;;;;;3.58;1.88;;;6.10;99.90;;;;;;5094682;28;20040;-74
2022/09/21 05:18:43;;;;;;;6.03;2.30;;;6.10;99.90;;;;;;5091978;28;20036;-74
2022/09/21 05:21:11;;;;;;;3.80;2.03;;;6.10;99.90;;;;;;5091317;28;20028;-73
2022/09/21 05:23:37;;;;;;;4.32;2.00;;;6.10;99.90;;;;;;5092056;28;20067;-74
2022/09/21 05:26:03;;;;;;;4.28;2.45;;;6.10;99.90;;;;;;5091489;28;20032;-74
2022/09/21 05:28:29;;;;;;;5.13;2.30;;;6.10;99.90;;;;;;5108570;28;20039;-74
2022/09/21 05:31:11;;;;;;;4.72;2.13;;;6.10;99.90;;;;;;5079404;28;20031;-74
2022/09/21 05:33:41;;;;;;;3.10;2.30;;;6.20;99.90;;;;;;5096006;28;20438;-74
2022/09/21 05:36:22;;;;;;;2.60;1.85;;;6.20;99.90;;;;;;5103786;28;20039;-74
2022/09/21 05:38:47;;;;;;;2.50;1.67;;;6.20;99.90;;;;;;5106923;28;20038;-74
2022/09/21 05:41:13;;;;;;;2.22;1.58;;;6.30;99.90;;;;;;5097366;28;20036;-74
2022/09/21 05:43:39;;;;;;;2.15;1.13;;;6.30;99.90;;;;;;5104313;28;20032;-74
2022/09/21 05:46:24;;;;;;;1.92;1.30;;;6.30;99.90;;;;;;5077283;28;20039;-74
2022/09/21 05:49:00;;;;;;;1.83;1.30;;;6.30;99.90;;;;;;5105998;28;20043;-74
2022/09/21 05:51:37;;;;;;;3.33;1.80;;;6.40;99.90;;;;;;5105733;28;20039;-75
2022/09/21 05:54:22;;;;;;;2.97;1.77;;;6.40;99.90;;;;;;5102314;28;20043;-73
2022/09/21 05:56:50;;;;;;;;;;;6.40;99.90;;;;;;5088080;28;20063;-75
2022/09/21 05:59:35;;;;;;;2.90;2.13;;;6.40;99.90;;;;;;5099864;28;20420;-74
2022/09/21 06:02:16;;;;;;;4.95;2.28;;;6.50;99.90;;;;;;5096340;28;20434;-75
2022/09/21 06:04:42;;;;;;;5.63;2.25;;;6.50;99.90;;;;;;5094515;28;20063;-74
2022/09/21 06:07:07;;;;;;;6.55;2.20;;;6.60;99.90;;;;;;5098981;28;20452;-74
2022/09/21 06:09:33;;;;;;;3.40;2.35;;;6.60;99.90;;;;;;5107551;28;20511;-74
2022/09/21 06:11:58;;;;;;;5.05;2.50;;;6.70;99.90;;;;;;5108775;28;20093;-74
2022/09/21 06:14:25;;;;;;;3.53;2.33;;;6.80;99.90;;;;;;5095828;28;20075;-74
2022/09/21 06:16:51;;;;;;;3.40;2.40;;;6.80;99.90;;;;;;5088829;28;20036;-74
2022/09/21 06:19:17;;;;;;;3.70;2.50;;;6.90;99.90;;;;;;5090133;28;20047;-75
2022/09/21 06:21:43;;;;;;;4.90;2.30;;;7.00;99.90;;;;;;5089532;28;20493;-75
2022/09/21 06:24:09;;;;;;;3.88;2.30;;;7.00;99.90;;;;;;5089591;28;20036;-75
2022/09/21 06:26:34;;;;;;;4.68;2.30;;;7.10;99.90;;;;;;5090416;28;20043;-75
2022/09/21 06:29:00;;;;;;;5.88;2.70;;;7.10;99.90;;;;;;5090426;28;20036;-74
2022/09/21 06:31:26;;;;;;;3.22;2.40;;;7.30;99.90;;;;;;5073062;28;20124;-75
2022/09/21 06:33:52;;;;;;;3.10;2.60;;;7.40;99.90;;;;;;5097357;28;20043;-75
2022/09/21 06:36:18;;;;;;;7.20;2.45;;;7.40;99.90;;;;;;5106358;28;20043;-74
2022/09/21 06:38:43;;;;;;;6.32;2.75;;;7.50;99.90;;;;;;5110594;28;20382;-74
2022/09/21 06:41:09;;;;;;;4.95;2.53;;;7.60;99.90;;;;;;5093455;28;20069;-73
2022/09/21 06:43:34;;;;;;;5.60;2.78;;;7.60;99.90;;;;;;5073548;28;20032;-74
2022/09/21 06:46:01;;;;;;;5.43;3.05;;;7.70;99.90;;;;;;5090158;28;20032;-74
2022/09/21 06:48:29;;;;;;;4.72;2.55;;;7.80;99.90;;;;;;5090174;28;20050;-73
2022/09/21 06:51:02;;;;;;;5.05;2.30;;;7.80;99.90;;;;;;5088914;28;20084;-75
2022/09/21 06:53:29;;;;;;;6.00;2.63;;;8.00;99.90;;;;;;5088729;28;20424;-75
2022/09/21 06:56:06;;;;;;;4.72;2.85;;;8.10;99.90;;;;;;5090156;28;20127;-75
2022/09/21 06:58:36;;;;;;;3.55;2.35;;;8.10;99.90;;;;;;5090385;28;20047;-75
2022/09/21 07:01:10;;;;;;;6.40;2.97;;;8.30;99.90;;;;;;5105152;28;20061;-75
2022/09/21 07:03:37;;;;;;;4.70;2.65;;;8.40;99.90;;;;;;5107557;28;20032;-74
2022/09/21 07:06:03;;;;;;;5.78;2.40;;;8.50;99.90;;;;;;5097484;28;20031;-75
2022/09/21 07:08:29;;;;;;;5.43;2.45;;;8.60;99.90;;;;;;5096758;28;20048;-75
2022/09/21 07:10:59;;;;;;;5.07;2.25;;;8.80;99.90;;;;;;5093619;28;20043;-75
2022/09/21 07:13:28;;;;;;;5.55;2.47;;;9.00;99.90;;;;;;5093508;28;20032;-75
2022/09/21 07:15:54;;;;;;;4.93;2.35;;;9.10;99.90;;;;;;5093720;28;20137;-74
2022/09/21 07:18:20;;;;;;;5.63;2.30;;;9.30;99.90;;;;;;5093628;28;20036;-74
2022/09/21 07:20:49;;;;;;;4.28;2.75;;;9.40;99.90;;;;;;5093619;28;20036;-75
2022/09/21 07:23:17;;;;;;;6.78;2.63;;;9.60;99.90;;;;;;5094287;28;20441;-75
2022/09/21 07:25:43;;;;;;;4.68;2.70;;;9.80;99.90;;;;;;5106832;28;20111;-75
2022/09/21 07:28:10;;;;;;;5.72;2.60;;;10.00;99.90;;;;;;5087574;28;20458;-75
2022/09/21 07:30:37;;;;;;;5.10;2.60;;;10.20;99.90;;;;;;5095728;28;20497;-76
2022/09/21 07:33:02;;;;;;;5.07;2.30;;;10.40;99.90;;;;;;5092772;28;20040;-74
2022/09/21 07:35:28;;;;;;;4.35;2.65;;;10.50;99.90;;;;;;5093127;28;20232;-76
2022/09/21 07:37:57;;;;;;;4.75;2.00;;;10.70;99.90;;;;;;5093067;28;20416;-76
2022/09/21 07:40:22;;;;;;;5.63;2.58;;;10.80;99.90;;;;;;5093100;28;20493;-75
2022/09/21 07:42:48;;;;;;;7.13;2.20;;;11.00;99.90;;;;;;5075973;28;20085;-76
2022/09/21 07:45:14;;;;;;;5.88;2.28;;;11.20;99.90;;;;;;5100053;28;20405;-76
2022/09/21 07:47:39;;;;;;;4.75;2.20;;;11.30;99.90;;;;;;5107361;28;20077;-76
2022/09/21 07:50:05;;;;;;;7.72;2.35;;;11.50;99.90;;;;;;5092987;28;20501;-76
2022/09/21 07:52:31;;;;;;;7.80;2.50;;;11.60;99.90;;;;;;5092456;28;20036;-76
2022/09/21 07:54:56;;;;;;;5.78;2.20;;;11.70;99.90;;;;;;5080398;28;20039;-76
2022/09/21 08:00:07;;;;;;;;;;;12.00;99.90;;;;;;5093154;28;20497;-76
2022/09/21 08:02:33;;;;;;;7.28;2.65;;;12.20;99.90;;;;;;5092425;28;19916;-76
2022/09/21 08:04:58;;;;;;;5.38;2.30;;;12.20;99.90;;;;;;5092596;28;20035;-76
2022/09/21 08:07:26;;;;;;;4.53;2.17;;;12.40;99.90;;;;;;5075535;28;20040;-76
2022/09/21 08:09:52;;;;;;;10.43;2.53;;;12.50;99.90;;;;;;5075642;28;20170;-75
2022/09/21 08:12:19;;;;;;;7.32;2.45;;;12.60;99.90;;;;;;5092259;28;20122;-76
2022/09/21 08:14:46;;;;;;;11.55;2.85;;;12.70;99.90;;;;;;5074929;28;20039;-76
2022/09/21 08:17:12;;;;;;;5.97;1.95;;;12.80;99.90;;;;;;5092257;28;20044;-76
2022/09/21 08:19:38;;;;;;;10.00;2.13;;;12.90;99.90;;;;;;5075262;28;20038;-75
2022/09/21 08:22:04;;;;;;;5.45;2.15;;;13.00;99.90;;;;;;5092003;28;20123;-75
2022/09/21 08:24:30;;;;;;;7.28;2.00;;;13.10;99.90;;;;;;5092245;28;20036;-76
2022/09/21 08:26:56;;;;;;;16.40;2.28;;;13.20;99.90;;;;;;5107307;28;20047;-76
2022/09/21 08:29:23;;;;;;;9.02;2.22;;;13.30;99.90;;;;;;5091929;28;20047;-75
2022/09/21 08:31:49;;;;;;;8.82;1.90;;;13.30;99.90;;;;;;5091920;28;20043;-75
2022/09/21 08:34:15;;;;;;;6.25;1.67;;;13.50;99.90;;;;;;5075216;28;20433;-74
2022/09/21 08:36:41;;;;;;;5.18;1.45;;;13.50;99.90;;;;;;5091952;28;20055;-75
2022/09/21 08:39:09;;;;;;;4.82;1.45;;;13.60;99.90;;;;;;5092071;28;20685;-75
2022/09/21 08:41:56;;;;;;;6.93;1.35;;;13.70;99.90;;;;;;5074673;28;20040;-75
2022/09/21 08:44:31;;;;;;;3.33;1.00;;;13.80;99.90;;;;;;5091615;28;20032;-75
2022/09/21 08:47:11;;;;;;;6.72;1.00;;;13.80;99.90;;;;;;5090030;28;20463;-74
2022/09/21 08:49:40;;;;;;;8.02;1.02;;;13.90;99.90;;;;;;5091384;28;20047;-75
2022/09/21 08:52:11;;;;;;;3.70;0.90;;;14.00;99.90;;;;;;5090661;28;20036;-76
2022/09/21 08:54:48;;;;;;;5.55;1.15;;;14.00;99.90;;;;;;5090523;28;20043;-75
2022/09/21 08:57:15;;;;;;;8.13;0.98;;;14.00;99.90;;;;;;5090973;28;20039;-76
2022/09/21 08:59:46;;;;;;;7.82;1.00;;;14.00;99.90;;;;;;5091400;28;20048;-75
2022/09/21 09:02:12;;;;;;;6.72;0.98;;;14.10;99.90;;;;;;5091546;28;20107;-75
2022/09/21 09:05:06;;;;;;;6.85;1.10;;;14.10;99.90;;;;;;5091546;28;20105;-74
2022/09/21 09:08:16;;;;;;;5.57;1.13;;;14.10;99.90;;;;;;5091621;28;20059;-74
2022/09/21 09:11:08;;;;;;;3.90;0.80;;;14.20;99.90;;;;;;5068521;28;20062;-75
2022/09/21 09:13:59;;;;;;;3.65;0.88;;;14.20;99.90;;;;;;5091202;28;20437;-73
2022/09/21 09:16:56;;;;;;;6.38;1.05;;;14.20;99.90;;;;;;5091646;28;20055;-75
2022/09/21 09:19:32;;;;;;;5.13;1.10;;;14.30;99.90;;;;;;5091531;28;20044;-75
2022/09/21 09:22:03;;;;;;;4.78;1.13;;;14.30;99.90;;;;;;5091270;28;20048;-75
2022/09/21 09:24:51;;;;;;;6.32;1.20;;;14.40;99.90;;;;;;5091536;28;20036;-75
2022/09/21 09:27:16;;;;;;;4.00;0.68;;;14.40;99.90;;;;;;5089340;28;20135;-76
2022/09/21 09:30:04;;;;;;;7.20;0.88;;;14.50;99.90;;;;;;5091219;28;20465;-75
2022/09/21 09:32:52;;;;;;;7.53;1.20;;;14.60;99.90;;;;;;5074527;28;20143;-75
2022/09/21 09:35:32;;;;;;;6.40;0.95;;;14.60;99.90;;;;;;5072773;28;20040;-75
2022/09/21 09:38:19;;;;;;;7.03;1.30;;;14.60;99.90;;;;;;5089338;28;20097;-75
2022/09/21 09:41:03;;;;;;;5.35;0.93;;;14.60;99.90;;;;;;5104442;28;20036;-75
2022/09/21 09:43:34;;;;;;;5.20;0.70;;;14.50;99.90;;;;;;5095067;28;20036;-75
2022/09/21 09:46:09;;;;;;;8.63;1.38;;;14.40;99.90;;;;;;5074068;28;20036;-75
2022/09/21 09:48:46;;;;;;;6.05;1.40;;;14.30;99.90;;;;;;5074213;28;20189;-76
2022/09/21 09:51:12;;;;;;;4.72;0.85;;;14.10;99.90;;;;;;5074037;28;20096;-75
2022/09/21 09:53:39;;;;;;;7.30;0.80;;;14.00;99.90;;;;;;5090911;28;20036;-75
2022/09/21 09:56:05;;;;;;;4.20;1.10;;;14.10;99.90;;;;;;5092042;28;20040;-75
2022/09/21 09:58:43;;;;;;;3.83;0.95;;;14.20;99.90;;;;;;5093424;28;20089;-73
2022/09/21 10:01:42;;;;;;;2.72;0.85;;;14.30;99.90;;;;;;5102361;28;20036;-74
2022/09/21 10:04:10;;;;;;;6.72;1.00;;;14.30;99.90;;;;;;5090568;28;20061;-74
2022/09/21 10:06:36;;;;;;;3.25;0.82;;;14.20;99.90;;;;;;5090231;28;20501;-73
2022/09/21 10:09:19;;;;;;;3.40;0.90;;;14.10;99.90;;;;;;5103257;28;20118;-75
2022/09/21 10:11:45;;;;;;;2.60;0.73;;;13.90;99.90;;;;;;5088663;28;20404;-75
2022/09/21 10:14:18;;;;;;;5.78;1.02;;;13.90;99.90;;;;;;5105211;28;20562;-75
2022/09/21 10:16:43;;;;;;;4.93;0.70;;;13.80;99.90;;;;;;5107593;28;20043;-75
2022/09/21 10:19:20;;;;;;;3.95;0.77;;;13.70;99.90;;;;;;5105576;28;20765;-75
2022/09/21 10:21:46;;;;;;;5.13;0.88;;;13.80;99.90;;;;;;5108349;28;20031;-74
2022/09/21 10:24:33;;;;;;;5.60;1.15;;;14.10;99.90;;;;;;5102857;28;20047;-75
2022/09/21 10:27:09;;;;;;;4.25;1.10;;;14.40;99.90;;;;;;5096250;28;20079;-75
2022/09/21 10:29:44;;;;;;;5.38;0.77;;;14.50;99.90;;;;;;5097998;28;20044;-75
2022/09/21 10:32:13;;;;;;;4.40;0.90;;;14.50;99.90;;;;;;5090223;28;20066;-76
2022/09/21 10:34:43;;;;;;;2.47;0.63;;;14.50;99.90;;;;;;5084674;28;20043;-75
2022/09/21 10:37:28;;;;;;;3.45;0.95;;;14.70;99.90;;;;;;5110794;28;20382;-74
2022/09/21 10:39:55;;;;;;;4.88;0.70;;;14.90;99.90;;;;;;5102709;28;20036;-76
2022/09/21 10:42:21;;;;;;;4.15;1.05;;;15.10;99.90;;;;;;5079707;28;20023;-75
2022/09/21 10:44:50;;;;;;;4.60;0.90;;;15.30;99.90;;;;;;5104957;28;20042;-75
2022/09/21 10:47:35;;;;;;;2.58;0.68;;;15.60;99.90;;;;;;5104963;28;20110;-75
2022/09/21 10:50:25;;;;;;;3.53;0.80;;;15.70;99.90;;;;;;5091189;28;20095;-76
2022/09/21 10:53:00;;;;;;;3.17;0.80;;;15.80;99.90;;;;;;5097112;28;20054;-76
2022/09/21 10:55:28;;;;;;;8.05;1.02;;;15.90;99.90;;;;;;5098983;28;20064;-75
2022/09/21 10:57:54;;;;;;;3.58;0.70;;;16.10;99.90;;;;;;5102905;28;20038;-75
2022/09/21 11:00:22;;;;;;;4.05;0.60;;;16.20;99.90;;;;;;5108080;28;20129;-75
2022/09/21 11:02:49;;;;;;;4.20;0.80;;;16.40;99.90;;;;;;5102120;28;20028;-76
2022/09/21 11:05:21;;;;;;;1.88;0.50;;;16.50;99.90;;;;;;5105055;28;20039;-76
2022/09/21 11:08:01;;;;;;;2.58;0.65;;;16.60;99.90;;;;;;5106205;28;20441;-75
2022/09/21 11:10:52;;;;;;;2.75;0.80;;;16.80;99.90;;;;;;5093519;28;20132;-76
2022/09/21 11:13:34;;;;;;;14.00;1.17;;;16.90;99.90;;;;;;5104417;28;20500;-76
2022/09/21 11:16:27;;;;;;;3.30;0.63;;;17.10;99.90;;;;;;5100103;28;20043;-76
2022/09/21 11:19:17;;;;;;;3.10;0.75;;;17.20;99.90;;;;;;5085805;28;20044;-75
2022/09/21 11:21:57;;;;;;;4.38;0.60;;;17.30;99.90;;;;;;5102052;28;20042;-76
2022/09/21 11:24:54;;;;;;;5.53;1.00;;;17.40;99.90;;;;;;5089210;28;20024;-76
2022/09/21 11:27:27;;;;;;;3.05;0.73;;;17.60;99.90;;;;;;5093939;28;20072;-76
2022/09/21 11:30:06;;;;;;;2.70;0.60;;;17.70;99.90;;;;;;5106970;28;20042;-75
2022/09/21 11:32:49;;;;;;;2.88;0.70;;;17.90;99.90;;;;;;5100460;28;20050;-76
2022/09/21 11:35:32;;;;;;;2.75;0.60;;;18.00;99.90;;;;;;5102904;28;20041;-74
2022/09/21 11:38:35;;;;;;;6.25;0.70;;;18.10;99.90;;;;;;5098382;28;20040;-77
2022/09/21 11:41:19;;;;;;;5.75;0.75;;;18.20;99.90;;;;;;5072202;28;20032;-74
2022/09/21 11:44:08;;;;;;;3.03;0.70;;;18.30;99.90;;;;;;5097176;28;20485;-77
2022/09/21 11:47:01;;;;;;;3.30;0.82;;;18.40;99.90;;;;;;5096756;28;20440;-76
2022/09/21 11:50:09;;;;;;;3.63;0.90;;;18.60;99.90;;;;;;5104729;28;20044;-76
2022/09/21 11:52:47;;;;;;;2.53;0.60;;;18.80;99.90;;;;;;5086801;28;20043;-77
2022/09/21 11:55:45;;;;;;;1.48;0.50;;;18.80;99.20;;;;;;5110017;28;20035;-76
2022/09/21 11:58:14;;;;;;;2.83;0.82;;;18.90;99.90;;;;;;5095128;28;20047;-77
2022/09/21 12:01:14;;;;;;;3.63;0.77;;;19.10;99.90;;;;;;5102987;28;20408;-77
2022/09/21 12:03:45;;;;;;;2.70;0.63;;;19.30;99.60;;;;;;5093990;28;20043;-74
2022/09/21 12:06:22;;;;;;;3.85;0.80;;;19.50;99.90;;;;;;5098175;27;20043;-75
2022/09/21 12:09:00;;;;;;;5.22;0.65;;;19.30;99.90;;;;;;5108459;27;20028;-75
2022/09/21 12:11:47;;;;;;;4.63;0.70;;;19.40;99.90;;;;;;5101594;27;20074;-74
2022/09/21 12:14:28;;;;;;;2.90;0.68;;;19.50;99.90;;;;;;5106170;27;20070;-74
2022/09/21 12:17:15;;;;;;;2.83;0.60;;;19.70;99.90;;;;;;5094060;28;20054;-73
2022/09/21 12:20:02;;;;;;;3.25;0.60;;;19.50;99.90;;;;;;5112571;28;20074;-73
2022/09/21 12:22:32;;;;;;;4.18;0.70;;;19.40;99.30;;;;;;5085848;28;20396;-73
2022/09/21 12:25:09;;;;;;;4.30;0.70;;;19.50;99.90;;;;;;5097374;28;20054;-72
2022/09/21 12:28:19;;;;;;;4.75;0.90;;;19.20;99.90;;;;;;5102556;28;20031;-75
2022/09/21 12:30:50;;;;;;;2.13;0.68;;;18.70;96.70;;;;;;5050092;28;20680;-75
2022/09/21 12:33:26;;;;;;;1.73;0.38;;;18.40;99.90;;;;;;5094362;28;20051;-71
2022/09/21 12:36:04;;;;;;;2.85;0.65;;;18.10;99.90;;;;;;5103522;28;20039;-74
2022/09/21 12:38:39;;;;;;;2.85;0.57;;;18.10;99.90;;;;;;5095037;28;20097;-75
2022/09/21 12:41:17;;;;;;;2.88;0.95;;;18.20;99.90;;;;;;5095667;28;20035;-74
2022/09/21 12:44:07;;;;;;;3.30;0.60;;;18.00;99.90;;;;;;5098097;28;20040;-74
2022/09/21 12:46:43;;;;;;;4.10;0.70;;;17.80;99.90;;;;;;5105881;28;20633;-74
2022/09/21 12:49:20;;;;;;;4.70;0.85;;;17.70;99.90;;;;;;5106710;28;20035;-73
2022/09/21 12:51:54;;;;;;;2.67;0.60;;;17.80;99.90;;;;;;5109277;28;20036;-75
2022/09/21 12:54:26;;;;;;;5.50;0.88;;;17.70;99.90;;;;;;5110394;28;20043;-74
2022/09/21 12:57:03;;;;;;;3.75;0.57;;;17.50;99.90;;;;;;5100202;28;20067;-73
2022/09/21 12:59:52;;;;;;;3.70;0.60;;;17.30;99.90;;;;;;5101110;28;20035;-74
2022/09/21 13:02:32;;;;;;;2.45;0.50;;;17.30;99.90;;;;;;5092478;28;20165;-74
2022/09/21 13:05:30;;;;;;;2.47;0.88;;;17.20;99.90;;;;;;5108725;28;20040;-74
2022/09/21 13:08:37;;;;;;;2.78;0.50;;;17.30;99.90;;;;;;5091313;28;20056;-73
2022/09/21 13:11:06;;;;;;;2.55;0.60;;;17.40;99.90;;;;;;5057964;28;20052;-73
2022/09/21 13:13:58;;;;;;;2.78;0.68;;;17.40;99.90;;;;;;5091976;28;20396;-74
2022/09/21 13:16:28;;;;;;;2.53;0.60;;;17.30;99.70;;;;;;5097787;27;20040;-73
2022/09/21 13:18:57;;;;;;;4.47;0.70;;;17.50;99.90;;;;;;5111103;28;20050;-73
2022/09/21 13:21:26;;;;;;;2.17;0.55;;;17.80;99.00;;;;;;5100015;28;20035;-74
2022/09/21 13:24:04;;;;;;;2.78;0.75;;;18.30;98.80;;;;;;5103051;28;20027;-73
2022/09/21 13:26:42;;;;;;;3.67;0.70;;;18.50;97.80;;;;;;5101201;28;20024;-74